Time;durP1;ratioP1;P1;durP2;ratioP2;P2;SDS_P1;SDS_P2;PMS_P1;PMS_P2;Temp;Humidity;BMP_temperature;BMP_pressure;BME280_temperature;BME280_humidity;BME280_pressure;Samples;Min_cycle;Max_cycle;Signal;HPM_P1;HPM_P2
2021/09/14 00:00:45;;;;;;;19.23;11.05;;;;;;;10.87;100.00;101155.28;2615313;36;20403;-40
2021/09/14 00:03:13;;;;;;;19.33;12.70;;;;;;;10.92;100.00;101152.06;2614854;36;20030;-41
2021/09/14 00:05:40;;;;;;;20.42;11.95;;;;;;;10.89;100.00;101158.75;2615837;36;20030;-40
2021/09/14 00:08:09;;;;;;;19.25;11.75;;;;;;;10.86;100.00;101157.00;2615120;36;20037;-46
2021/09/14 00:10:36;;;;;;;18.05;12.13;;;;;;;10.78;100.00;101161.00;2615494;36;20041;-43
2021/09/14 00:13:03;;;;;;;17.77;11.60;;;;;;;10.73;100.00;101154.84;2617484;31;20667;-40
2021/09/14 00:15:30;;;;;;;19.23;12.15;;;;;;;10.68;100.00;101152.13;2616566;31;20530;-41
2021/09/14 00:17:57;;;;;;;23.50;11.63;;;;;;;10.67;100.00;101163.19;2615570;36;20026;-41
2021/09/14 00:20:24;;;;;;;22.00;12.35;;;;;;;10.63;100.00;101156.25;2616198;31;20103;-41
2021/09/14 00:22:52;;;;;;;26.67;13.73;;;;;;;10.66;100.00;101156.31;2615994;36;20038;-45
2021/09/14 00:25:19;;;;;;;24.63;13.23;;;;;;;10.68;100.00;101151.28;2616033;36;20034;-42
2021/09/14 00:27:46;;;;;;;23.80;13.07;;;;;;;10.68;100.00;101152.13;2615065;36;20050;-43
2021/09/14 00:30:13;;;;;;;23.00;13.40;;;;;;;10.65;100.00;101149.47;2615751;31;20057;-43
2021/09/14 00:32:40;;;;;;;21.77;12.55;;;;;;;10.64;100.00;101144.31;2616606;31;20042;-46
2021/09/14 00:35:08;;;;;;;21.60;13.05;;;;;;;10.58;100.00;101137.28;2619543;31;20439;-40
2021/09/14 00:37:35;;;;;;;18.60;10.77;;;;;;;10.52;100.00;101147.31;2617252;36;20458;-41
2021/09/14 00:40:04;;;;;;;18.40;11.38;;;;;;;10.48;100.00;101149.72;2616258;31;20557;-43
2021/09/14 00:42:32;;;;;;;17.83;10.98;;;;;;;10.45;100.00;101142.84;2617225;31;20653;-41
2021/09/14 00:44:59;;;;;;;21.45;12.15;;;;;;;10.44;100.00;101146.19;2615926;36;20150;-44
2021/09/14 00:47:26;;;;;;;19.65;11.30;;;;;;;10.44;100.00;101148.75;2616530;31;20038;-44
2021/09/14 00:49:54;;;;;;;19.88;11.18;;;;;;;10.40;100.00;101141.81;2615913;36;20034;-43
2021/09/14 00:52:21;;;;;;;19.13;10.80;;;;;;;10.37;100.00;101150.25;2617561;36;20053;-41
2021/09/14 00:54:50;;;;;;;19.75;11.20;;;;;;;10.37;100.00;101157.94;2617365;31;20129;-41
2021/09/14 00:57:17;;;;;;;18.20;11.90;;;;;;;10.39;100.00;101163.09;2615360;36;20034;-43
2021/09/14 00:59:44;;;;;;;18.92;11.75;;;;;;;10.48;100.00;101157.41;2615913;36;20438;-44
2021/09/14 01:02:11;;;;;;;25.63;11.55;;;;;;;10.51;100.00;101153.28;2614953;36;20030;-44
2021/09/14 01:04:39;;;;;;;16.83;11.63;;;;;;;10.50;100.00;101151.53;2616214;36;20030;-44
2021/09/14 01:07:06;;;;;;;21.08;12.00;;;;;;;10.54;100.00;101155.03;2616863;36;20042;-42
2021/09/14 01:09:36;;;;;;;17.50;10.93;;;;;;;10.55;100.00;101144.88;2615396;31;20034;-41
2021/09/14 01:12:04;;;;;;;20.50;12.90;;;;;;;10.63;100.00;101143.44;2616010;36;20034;-41
2021/09/14 01:14:31;;;;;;;22.27;12.85;;;;;;;10.67;100.00;101146.94;2615269;36;20554;-42
2021/09/14 01:16:58;;;;;;;22.55;12.73;;;;;;;10.67;100.00;101144.38;2615377;36;20035;-44
2021/09/14 01:19:25;;;;;;;20.38;12.40;;;;;;;10.83;100.00;101148.34;2615088;36;20057;-44
2021/09/14 01:21:52;;;;;;;26.25;14.13;;;;;;;10.76;100.00;101146.38;2615307;36;20037;-44
2021/09/14 01:24:19;;;;;;;19.05;12.55;;;;;;;10.80;100.00;101146.53;2615592;36;20035;-41
2021/09/14 01:26:47;;;;;;;22.38;12.10;;;;;;;10.83;100.00;101138.09;2615915;31;20030;-44
2021/09/14 01:32:04;;;;;;;24.92;12.93;;;;;;;10.69;100.00;101132.53;2578586;36;2004389;-43
2021/09/14 01:34:31;;;;;;;20.92;12.45;;;;;;;10.63;100.00;101135.75;2615250;36;20065;-42
2021/09/14 01:36:58;;;;;;;23.00;12.35;;;;;;;10.60;100.00;101133.09;2615250;31;20043;-43
2021/09/14 01:39:25;;;;;;;20.58;12.60;;;;;;;10.63;100.00;101129.75;2615590;36;20471;-44
2021/09/14 01:41:52;;;;;;;22.38;12.82;;;;;;;10.67;100.00;101137.56;2615778;31;20030;-41
2021/09/14 01:44:19;;;;;;;23.20;13.45;;;;;;;10.74;100.00;101136.09;2615874;31;20037;-43
2021/09/14 01:46:48;;;;;;;25.25;13.65;;;;;;;10.73;100.00;101138.63;2615736;31;20660;-43
2021/09/14 01:49:15;;;;;;;23.65;13.23;;;;;;;10.64;100.00;101137.50;2615445;36;20034;-42
2021/09/14 01:51:42;;;;;;;23.17;12.48;;;;;;;10.58;100.00;101128.72;2614813;36;20574;-43
2021/09/14 01:54:10;;;;;;;23.08;12.30;;;;;;;10.56;100.00;101127.81;2615862;31;20620;-42
2021/09/14 01:56:38;;;;;;;23.27;13.63;;;;;;;10.58;100.00;101131.28;2615524;31;20038;-45
2021/09/14 01:59:05;;;;;;;29.85;14.63;;;;;;;10.59;100.00;101130.50;2615837;31;20042;-41
2021/09/14 02:01:39;;;;;;;22.60;13.82;;;;;;;10.60;100.00;101119.41;2616032;31;20154;-43
2021/09/14 02:04:31;;;;;;;29.50;15.35;;;;;;;10.61;100.00;101119.44;2617968;31;20407;-40
2021/09/14 02:23:59;;;;;;;25.58;15.52;;;;;;;10.37;100.00;101116.97;2579091;31;2004353;-45
2021/09/14 02:56:57;;;;;;;29.77;15.83;;;;;;;10.24;100.00;101107.13;2615972;31;20026;-41
2021/09/14 02:59:07;;;;;;;28.77;15.32;;;;;;;10.19;100.00;101111.19;2579199;31;2004611;-43
2021/09/14 03:01:34;;;;;;;34.45;16.15;;;;;;;10.15;100.00;101101.66;2614749;36;20030;-43
2021/09/14 03:04:05;;;;;;;32.75;16.00;;;;;;;10.12;100.00;101109.22;2614922;31;20037;-42
2021/09/14 03:06:32;;;;;;;35.65;15.88;;;;;;;10.11;100.00;101108.38;2614407;36;20053;-43
2021/09/14 03:08:59;;;;;;;37.95;17.00;;;;;;;10.18;100.00;101106.91;2614910;36;20037;-43
2021/09/14 03:11:26;;;;;;;33.17;15.43;;;;;;;10.08;100.00;101117.66;2614674;31;20038;-43
2021/09/14 03:13:54;;;;;;;32.15;16.35;;;;;;;10.12;100.00;101110.13;2615433;31;20034;-44
2021/09/14 03:16:21;;;;;;;33.80;17.40;;;;;;;10.07;100.00;101111.63;2620772;36;20022;-42
2021/09/14 03:18:48;;;;;;;35.63;17.33;;;;;;;10.02;100.00;101102.06;2615438;31;20038;-43
2021/09/14 03:21:16;;;;;;;36.63;17.33;;;;;;;10.00;100.00;101106.28;2615194;31;20034;-42
2021/09/14 03:23:43;;;;;;;39.30;17.38;;;;;;;9.97;100.00;101107.03;2616662;31;20038;-43
2021/09/14 03:26:10;;;;;;;39.10;16.80;;;;;;;9.93;100.00;101106.03;2614453;36;20570;-47
2021/09/14 03:28:38;;;;;;;39.88;17.58;;;;;;;9.91;100.00;101104.25;2614803;36;20034;-43
2021/09/14 03:31:05;;;;;;;38.83;17.63;;;;;;;9.93;100.00;101108.59;2614965;36;20108;-46
2021/09/14 03:33:32;;;;;;;33.60;17.08;;;;;;;9.90;100.00;101107.66;2615189;31;20065;-46
2021/09/14 03:35:59;;;;;;;36.60;17.23;;;;;;;9.82;100.00;101094.56;2614418;36;20042;-44
2021/09/14 03:38:27;;;;;;;37.13;17.52;;;;;;;9.81;100.00;101103.06;2614457;36;20081;-42
2021/09/14 03:40:54;;;;;;;34.83;16.40;;;;;;;9.76;100.00;101104.59;2614408;36;20566;-44
2021/09/14 03:43:21;;;;;;;33.95;16.58;;;;;;;9.74;100.00;101100.22;2614927;36;20034;-42
2021/09/14 03:45:51;;;;;;;36.35;17.25;;;;;;;9.77;100.00;101090.13;2615483;36;20023;-43
2021/09/14 03:48:22;;;;;;;33.83;16.70;;;;;;;9.76;100.00;101093.50;2617267;31;20497;-42
2021/09/14 03:50:49;;;;;;;33.35;17.20;;;;;;;9.78;100.00;101089.28;2615414;36;20041;-42
2021/09/14 03:53:16;;;;;;;35.15;17.77;;;;;;;9.78;100.00;101084.19;2616467;31;20037;-42
2021/09/14 03:55:44;;;;;;;35.20;17.67;;;;;;;9.79;100.00;101091.03;2616118;31;20058;-44
2021/09/14 03:58:16;;;;;;;41.55;17.83;;;;;;;9.78;100.00;101084.19;2615076;36;20057;-44
2021/09/14 04:00:50;;;;;;;34.85;16.73;;;;;;;9.76;100.00;101081.59;2616071;31;20041;-46
2021/09/14 04:03:23;;;;;;;35.25;16.73;;;;;;;9.78;100.00;101087.59;2615456;31;20030;-42
2021/09/14 04:11:21;;;;;;;40.92;19.00;;;;;;;9.79;100.00;101084.22;2615495;36;20049;-43
2021/09/14 04:13:49;;;;;;;39.25;17.15;;;;;;;9.77;100.00;101082.44;2615520;31;20042;-43
2021/09/14 04:16:18;;;;;;;40.13;18.75;;;;;;;9.83;100.00;101082.66;2615185;31;20569;-46
2021/09/14 04:18:45;;;;;;;44.85;19.65;;;;;;;9.81;100.00;101084.31;2615102;36;20038;-45
2021/09/14 04:21:13;;;;;;;43.53;19.67;;;;;;;9.79;100.00;101081.66;2615600;31;20660;-42
2021/09/14 04:23:41;;;;;;;37.05;17.65;;;;;;;9.77;100.00;101085.88;2615075;36;20034;-43
2021/09/14 04:26:09;;;;;;;38.17;17.95;;;;;;;9.84;100.00;101079.28;2615801;36;20065;-43
2021/09/14 04:28:37;;;;;;;38.65;18.95;;;;;;;9.83;100.00;101083.53;2614848;36;20606;-42
2021/09/14 04:31:04;;;;;;;43.17;18.38;;;;;;;9.78;100.00;101087.59;2615238;36;20034;-45
2021/09/14 04:33:31;;;;;;;35.83;18.52;;;;;;;9.73;100.00;101078.91;2615810;31;20038;-43
2021/09/14 04:35:58;;;;;;;34.63;16.98;;;;;;;9.72;100.00;101073.75;2615556;31;20039;-42
2021/09/14 04:38:26;;;;;;;37.88;18.15;;;;;;;9.70;100.00;101081.34;2615238;36;20041;-44
2021/09/14 04:40:54;;;;;;;35.95;16.70;;;;;;;9.67;100.00;101078.69;2616291;36;20034;-44
2021/09/14 04:43:21;;;;;;;34.13;16.42;;;;;;;9.60;100.00;101082.72;2616121;31;20485;-42
2021/09/14 04:45:48;;;;;;;34.17;16.83;;;;;;;9.55;100.00;101084.22;2615196;36;20042;-44
2021/09/14 04:48:17;;;;;;;34.15;17.60;;;;;;;9.50;100.00;101085.75;2614993;31;20030;-45
2021/09/14 04:50:44;;;;;;;36.38;16.35;;;;;;;9.49;100.00;101086.56;2614292;36;20038;-43
2021/09/14 04:53:11;;;;;;;32.10;15.55;;;;;;;9.52;100.00;101090.91;2615344;31;20031;-43
2021/09/14 04:55:38;;;;;;;30.98;15.57;;;;;;;9.48;100.00;101089.97;2615296;36;20153;-46
2021/09/14 04:58:05;;;;;;;34.65;16.80;;;;;;;9.54;100.00;101097.84;2614932;36;20039;-47
2021/09/14 05:00:32;;;;;;;36.42;17.45;;;;;;;9.66;100.00;101095.72;2615780;31;20364;-44
2021/09/14 05:02:59;;;;;;;38.40;17.45;;;;;;;9.74;100.00;101088.31;2615736;36;20031;-42
2021/09/14 05:05:26;;;;;;;39.20;17.75;;;;;;;9.72;100.00;101096.75;2615776;31;20034;-42
2021/09/14 05:07:54;;;;;;;33.10;16.33;;;;;;;9.62;100.00;101093.00;2615238;36;20058;-44
2021/09/14 05:10:21;;;;;;;32.33;16.70;;;;;;;9.64;100.00;101097.34;2616180;31;20349;-42
2021/09/14 05:12:48;;;;;;;32.58;16.58;;;;;;;9.74;100.00;101095.97;2615540;36;20034;-42
2021/09/14 05:15:15;;;;;;;34.72;18.00;;;;;;;9.81;100.00;101094.53;2615219;36;20046;-42
2021/09/14 05:17:42;;;;;;;38.50;17.63;;;;;;;9.88;100.00;101091.34;2618071;31;20563;-46
2021/09/14 05:20:11;;;;;;;32.65;16.70;;;;;;;9.99;100.00;101094.31;2616458;31;20137;-44
2021/09/14 05:22:38;;;;;;;41.15;18.73;;;;;;;10.06;100.00;101091.13;2615934;31;20065;-42
2021/09/14 05:25:06;;;;;;;40.92;19.50;;;;;;;10.11;100.00;101087.88;2615834;36;20447;-44
2021/09/14 05:27:33;;;;;;;40.83;20.20;;;;;;;10.21;100.00;101091.63;2615202;36;20951;-44
2021/09/14 05:30:00;;;;;;;43.88;21.27;;;;;;;10.27;100.00;101094.44;2615485;36;20034;-44
2021/09/14 05:32:27;;;;;;;44.33;18.75;;;;;;;10.30;100.00;101089.41;2615891;36;20065;-42
2021/09/14 05:34:55;;;;;;;46.28;20.63;;;;;;;10.38;100.00;101093.09;2615010;31;20029;-46
2021/09/14 05:37:22;;;;;;;46.78;21.27;;;;;;;10.39;100.00;101089.72;2615588;36;20435;-42
2021/09/14 05:39:49;;;;;;;44.78;22.08;;;;;;;10.41;100.00;101087.22;2615450;31;20162;-44
2021/09/14 05:42:16;;;;;;;45.45;21.40;;;;;;;10.37;100.00;101086.25;2615189;36;20027;-43
2021/09/14 05:44:44;;;;;;;47.08;23.10;;;;;;;10.50;100.00;101084.09;2615118;36;20034;-42
2021/09/14 05:47:11;;;;;;;46.75;22.00;;;;;;;10.59;100.00;101092.94;2614473;36;20586;-45
2021/09/14 05:49:38;;;;;;;44.30;20.33;;;;;;;10.65;100.00;101090.56;2615314;31;20031;-42
2021/09/14 05:52:05;;;;;;;48.00;20.52;;;;;;;10.68;100.00;101089.81;2615278;31;20030;-41
2021/09/14 05:54:33;;;;;;;40.58;18.77;;;;;;;10.72;100.00;101101.84;2614523;31;20647;-41
2021/09/14 05:57:05;;;;;;;36.20;19.08;;;;;;;10.78;100.00;101102.06;2614253;36;20041;-42
2021/09/14 05:59:33;;;;;;;34.80;17.52;;;;;;;10.92;100.00;101094.81;2616156;31;20518;-44
2021/09/14 06:02:02;;;;;;;37.25;18.20;;;;;;;11.18;100.00;101105.84;2615219;36;20022;-46
2021/09/14 06:04:29;;;;;;;25.75;13.95;;;;;;;11.44;100.00;101097.22;2614936;36;20081;-43
2021/09/14 06:06:57;;;;;;;19.90;12.18;;;;;;;13.60;100.00;101111.97;2615096;36;20784;-44
2021/09/14 06:09:24;;;;;;;13.90;9.48;;;;;;;15.82;100.00;101111.19;2614972;36;20539;-44
2021/09/14 06:11:51;;;;;;;9.90;7.30;;;;;;;16.71;100.00;101114.56;2615228;31;20040;-43
2021/09/14 06:14:20;;;;;;;7.03;5.55;;;;;;;17.34;100.00;101125.34;2615030;36;20567;-43
2021/09/14 06:16:48;;;;;;;6.63;4.40;;;;;;;18.22;93.11;101120.47;2615388;31;20042;-44
2021/09/14 06:19:17;;;;;;;6.43;4.13;;;;;;;18.42;92.82;101127.38;2614815;36;20034;-43
2021/09/14 06:21:44;;;;;;;4.57;3.65;;;;;;;19.15;88.46;101131.66;2615538;31;20527;-45
2021/09/14 06:24:12;;;;;;;7.25;4.38;;;;;;;18.87;87.12;101134.31;2615304;31;20034;-43
2021/09/14 06:26:39;;;;;;;5.43;3.67;;;;;;;19.67;81.35;101142.75;2614212;36;20034;-45
2021/09/14 06:29:07;;;;;;;8.82;3.90;;;;;;;20.35;78.14;101151.91;2615340;36;20350;-46
2021/09/14 06:31:36;;;;;;;6.50;3.15;;;;;;;21.52;72.77;101156.91;2614973;31;20042;-44
2021/09/14 06:34:10;;;;;;;4.68;3.10;;;;;;;22.65;68.52;101159.69;2615416;31;20030;-45
2021/09/14 06:36:39;;;;;;;4.15;2.70;;;;;;;23.32;66.00;101160.22;2614168;36;20030;-43
2021/09/14 06:39:06;;;;;;;3.10;2.83;;;;;;;24.44;63.49;101170.94;2614870;36;20046;-48
2021/09/14 06:41:35;;;;;;;6.25;2.97;;;;;;;23.43;62.35;101166.09;2615240;36;20031;-44
2021/09/14 06:44:04;;;;;;;4.10;3.22;;;;;;;21.17;70.73;101157.28;2615115;36;20042;-44
2021/09/14 06:46:31;;;;;;;4.45;3.08;;;;;;;21.78;68.95;101158.34;2615140;36;20046;-44
2021/09/14 06:48:58;;;;;;;5.43;2.95;;;;;;;23.93;61.16;101158.13;2614926;36;20039;-44
2021/09/14 06:51:25;;;;;;;3.85;2.97;;;;;;;24.31;58.68;101167.69;2615521;31;20054;-45
2021/09/14 06:53:52;;;;;;;4.47;3.15;;;;;;;26.08;54.01;101172.59;2614982;36;20038;-44
2021/09/14 06:56:20;;;;;;;3.53;2.75;;;;;;;27.87;48.55;101172.56;2614826;31;20038;-46
2021/09/14 06:58:47;;;;;;;4.07;2.75;;;;;;;27.07;49.02;101174.56;2614894;31;20035;-44
2021/09/14 07:01:18;;;;;;;3.90;3.08;;;;;;;25.83;51.69;101178.56;2614653;36;20034;-44
2021/09/14 07:03:46;;;;;;;3.80;3.38;;;;;;;27.07;48.45;101173.72;2614874;36;20022;-45
2021/09/14 07:06:13;;;;;;;5.20;3.67;;;;;;;22.55;61.63;101158.09;2614826;31;20037;-44
2021/09/14 07:08:42;;;;;;;5.40;3.30;;;;;;;20.90;71.54;101153.22;2614595;36;20042;-46
2021/09/14 07:11:13;;;;;;;3.88;2.72;;;;;;;20.24;76.00;101153.69;2614796;36;20593;-46
2021/09/14 07:13:42;;;;;;;5.57;3.05;;;;;;;18.83;82.90;101149.03;2616390;31;20038;-44
2021/09/14 07:16:09;;;;;;;6.43;3.13;;;;;;;17.66;91.08;101147.06;2615357;31;20041;-44
2021/09/14 07:18:38;;;;;;;6.10;3.20;;;;;;;17.01;97.25;101135.50;2615092;31;20874;-47
2021/09/14 07:21:06;;;;;;;6.50;3.40;;;;;;;16.49;100.00;101137.66;2616332;31;20031;-43
2021/09/14 07:23:34;;;;;;;5.13;3.08;;;;;;;16.49;100.00;101142.81;2614591;36;20031;-43
2021/09/14 07:26:02;;;;;;;5.93;3.17;;;;;;;16.36;99.56;101151.34;2615111;36;20451;-43
2021/09/14 07:28:30;;;;;;;5.45;2.95;;;;;;;15.92;100.00;101140.56;2615225;31;20034;-43
2021/09/14 07:31:02;;;;;;;5.88;3.13;;;;;;;16.00;100.00;101142.38;2615289;31;20188;-44
2021/09/14 07:33:29;;;;;;;4.85;2.85;;;;;;;16.08;100.00;101141.56;2617876;31;20057;-51
2021/09/14 07:35:56;;;;;;;3.65;3.13;;;;;;;16.00;100.00;101147.53;2623931;31;20082;-45
2021/09/14 07:38:24;;;;;;;3.88;2.80;;;;;;;16.10;100.00;101145.06;2621761;36;20408;-45
2021/09/14 07:40:51;;;;;;;6.50;3.42;;;;;;;15.94;100.00;101139.69;2616008;31;20057;-43
2021/09/14 07:43:18;;;;;;;4.45;3.20;;;;;;;15.81;100.00;101132.69;2615235;31;20030;-44
2021/09/14 07:45:45;;;;;;;6.22;3.05;;;;;;;15.97;100.00;101136.28;2615270;31;20089;-44
2021/09/14 07:48:12;;;;;;;3.85;3.00;;;;;;;15.96;100.00;101138.03;2614504;36;20586;-45
2021/09/14 07:50:40;;;;;;;5.38;3.30;;;;;;;15.93;100.00;101143.13;2614472;36;20031;-45
2021/09/14 07:53:07;;;;;;;7.65;3.38;;;;;;;15.77;100.00;101138.66;2615150;31;20063;-48
2021/09/14 07:55:35;;;;;;;3.40;3.10;;;;;;;15.97;100.00;101147.50;2614275;36;20039;-44
2021/09/14 07:58:02;;;;;;;4.53;3.05;;;;;;;15.95;100.00;101138.88;2614056;36;20038;-45
2021/09/14 08:00:30;;;;;;;7.35;2.85;;;;;;;16.43;100.00;101142.78;2615270;31;20590;-46
2021/09/14 08:02:58;;;;;;;4.28;3.10;;;;;;;16.78;100.00;101137.06;2616053;31;20585;-46
2021/09/14 08:05:26;;;;;;;7.20;3.35;;;;;;;16.84;100.00;101142.28;2614675;36;20050;-45
2021/09/14 08:07:54;;;;;;;5.78;3.40;;;;;;;17.03;99.81;101144.13;2614770;36;20026;-47
2021/09/14 08:10:21;;;;;;;4.57;2.90;;;;;;;17.64;94.79;101150.50;2615107;36;20442;-45
2021/09/14 08:12:48;;;;;;;4.00;2.55;;;;;;;19.36;83.13;101148.91;2615207;31;20031;-45
2021/09/14 08:15:16;;;;;;;4.40;3.13;;;;;;;18.87;84.17;101151.63;2614699;36;20034;-47
2021/09/14 08:17:43;;;;;;;3.13;2.70;;;;;;;18.36;86.65;101142.94;2615008;36;20038;-47
2021/09/14 08:20:10;;;;;;;3.38;2.95;;;;;;;18.67;84.97;101149.00;2614526;36;20038;-48
2021/09/14 08:22:37;;;;;;;3.20;2.67;;;;;;;19.42;80.22;101154.97;2614872;31;20030;-47
2021/09/14 08:25:05;;;;;;;5.47;2.78;;;;;;;19.23;80.06;101155.91;2614993;31;20038;-44
2021/09/14 08:27:33;;;;;;;4.07;2.42;;;;;;;18.89;80.99;101155.94;2615347;31;20473;-44
2021/09/14 08:30:01;;;;;;;5.30;2.90;;;;;;;18.49;82.60;101157.66;2616037;31;20434;-44
2021/09/14 08:32:28;;;;;;;6.10;3.42;;;;;;;18.42;87.58;101154.19;2615959;31;20034;-45
2021/09/14 08:34:55;;;;;;;5.50;2.80;;;;;;;18.15;88.20;101156.72;2615324;36;20042;-46
2021/09/14 08:37:23;;;;;;;5.60;2.42;;;;;;;18.12;89.99;101148.94;2615711;31;20034;-47
2021/09/14 08:39:50;;;;;;;4.43;2.92;;;;;;;17.77;90.12;101149.72;2615082;36;20057;-46
2021/09/14 08:42:22;;;;;;;8.45;3.60;;;;;;;18.08;89.93;101153.28;2615819;31;20038;-46
2021/09/14 08:44:52;;;;;;;2.92;2.25;;;;;;;18.01;88.92;101157.56;2615570;31;20569;-46
2021/09/14 08:47:22;;;;;;;6.80;3.05;;;;;;;17.76;88.61;101155.78;2615179;36;20828;-46
2021/09/14 08:49:49;;;;;;;3.75;2.33;;;;;;;17.87;91.09;101151.47;2615635;31;20049;-45
2021/09/14 08:52:17;;;;;;;4.07;2.40;;;;;;;17.80;90.12;101152.31;2615461;31;20061;-44
2021/09/14 08:54:44;;;;;;;4.60;2.65;;;;;;;17.91;90.78;101149.75;2615490;31;20065;-45
2021/09/14 08:57:12;;;;;;;3.42;2.92;;;;;;;18.09;90.50;101148.94;2615193;36;20566;-46
2021/09/14 08:59:48;;;;;;;5.97;3.17;;;;;;;18.02;88.10;101148.06;2615414;31;20471;-44
2021/09/14 09:02:16;;;;;;;7.82;3.10;;;;;;;18.19;89.63;101143.78;2615696;31;20422;-44
2021/09/14 09:05:01;;;;;;;7.63;2.65;;;;;;;18.52;89.78;101137.75;2615367;36;20041;-47
2021/09/14 09:07:36;;;;;;;4.68;2.72;;;;;;;18.81;88.18;101135.19;2579520;31;2004254;-47
2021/09/14 09:10:14;;;;;;;4.25;2.80;;;;;;;18.61;85.29;101134.28;2615549;36;20462;-45
2021/09/14 09:12:48;;;;;;;6.60;2.90;;;;;;;19.87;80.39;101134.00;2615025;31;20186;-46
2021/09/14 09:15:29;;;;;;;6.38;3.28;;;;;;;20.35;77.79;101135.44;2615918;36;20165;-47
2021/09/14 09:18:11;;;;;;;4.03;2.65;;;;;;;20.17;79.48;101125.16;2578535;36;2004382;-45
2021/09/14 09:20:43;;;;;;;6.90;3.10;;;;;;;20.11;78.35;101131.28;2615527;31;20062;-45
2021/09/14 09:23:22;;;;;;;4.80;2.97;;;;;;;20.50;76.60;101137.06;2614916;36;20061;-45
2021/09/14 09:25:51;;;;;;;6.15;3.00;;;;;;;20.22;79.73;101131.19;2616335;31;20023;-47
2021/09/14 09:28:23;;;;;;;4.93;3.22;;;;;;;19.72;80.95;101127.16;2615379;31;20026;-45
2021/09/14 09:30:57;;;;;;;5.18;2.90;;;;;;;19.82;81.61;101127.09;2615046;36;20031;-48
2021/09/14 09:33:29;;;;;;;4.88;2.97;;;;;;;20.08;83.73;101131.28;2615360;36;20578;-47
2021/09/14 09:36:01;;;;;;;3.38;2.65;;;;;;;20.02;82.02;101127.00;2579101;31;2004588;-48
2021/09/14 09:38:29;;;;;;;7.20;3.22;;;;;;;19.66;83.85;101122.84;2615351;36;20089;-45
2021/09/14 09:40:57;;;;;;;6.65;3.55;;;;;;;19.33;84.57;101118.63;2615133;31;20038;-48
2021/09/14 09:43:29;;;;;;;7.05;3.03;;;;;;;19.70;85.35;101127.16;2615342;31;20037;-47
2021/09/14 09:46:08;;;;;;;5.60;3.53;;;;;;;19.38;85.47;101119.47;2579594;36;2004319;-46
2021/09/14 09:48:36;;;;;;;8.48;3.95;;;;;;;19.15;85.10;101111.75;2614872;31;20038;-47
2021/09/14 09:51:04;;;;;;;5.88;3.10;;;;;;;19.58;86.16;101120.25;2615293;31;20035;-47
2021/09/14 09:53:33;;;;;;;6.43;3.63;;;;;;;19.53;81.58;101114.22;2614741;36;20030;-45
2021/09/14 09:56:02;;;;;;;7.28;3.55;;;;;;;19.55;85.31;101112.50;2615066;31;20121;-46
2021/09/14 09:58:50;;;;;;;5.40;3.50;;;;;;;19.55;80.67;101114.19;2614872;36;20156;-45
2021/09/14 10:01:21;;;;;;;5.13;3.40;;;;;;;19.89;79.48;101119.28;2616020;31;20574;-48
2021/09/14 10:04:05;;;;;;;6.22;2.75;;;;;;;21.69;74.32;101121.97;2615307;31;20046;-45
2021/09/14 10:06:40;;;;;;;7.47;3.00;;;;;;;24.18;62.44;101124.41;2579131;31;2004637;-49
2021/09/14 10:09:10;;;;;;;5.65;2.40;;;;;;;26.43;51.96;101126.84;2615105;31;20054;-46
2021/09/14 10:11:37;;;;;;;6.03;2.78;;;;;;;28.72;47.97;101127.00;2616457;31;20026;-46
2021/09/14 10:14:13;;;;;;;5.80;3.00;;;;;;;31.37;38.03;101141.53;2615937;31;20438;-44
2021/09/14 10:16:49;;;;;;;6.13;2.63;;;;;;;28.31;44.81;101134.84;2615131;31;20151;-46
2021/09/14 10:19:28;;;;;;;2.90;2.70;;;;;;;29.18;42.57;101137.28;2615662;31;20035;-48
2021/09/14 10:22:03;;;;;;;4.35;3.15;;;;;;;32.15;36.93;101143.34;2615617;31;20039;-47
2021/09/14 10:24:32;;;;;;;3.47;2.60;;;;;;;31.79;37.74;101133.03;2578831;36;2004546;-45
2021/09/14 10:27:09;;;;;;;7.53;2.75;;;;;;;32.26;34.49;101134.78;2613416;36;20031;-44
2021/09/14 10:29:37;;;;;;;5.22;2.90;;;;;;;32.22;35.01;101132.41;2614502;31;20617;-42
2021/09/14 10:32:09;;;;;;;4.15;2.72;;;;;;;30.40;38.14;101130.63;2615108;36;20030;-43
2021/09/14 10:34:43;;;;;;;4.00;2.80;;;;;;;29.39;41.73;101122.22;2615306;36;20030;-43
2021/09/14 10:37:12;;;;;;;3.63;2.65;;;;;;;25.79;47.05;101108.75;2615741;31;20562;-44
2021/09/14 10:39:42;;;;;;;4.53;2.75;;;;;;;26.62;44.69;101117.44;2615598;31;20038;-46
2021/09/14 10:42:19;;;;;;;6.03;3.00;;;;;;;28.03;42.16;101125.41;2615335;31;20053;-44
2021/09/14 10:44:48;;;;;;;4.55;2.67;;;;;;;29.43;39.58;101123.81;2615046;31;20031;-44
2021/09/14 10:47:20;;;;;;;5.07;3.00;;;;;;;28.18;40.96;101118.66;2614669;31;20045;-46
2021/09/14 10:49:59;;;;;;;4.45;2.50;;;;;;;32.31;36.23;101134.50;2614064;36;20034;-47
2021/09/14 10:52:43;;;;;;;3.85;2.40;;;;;;;31.25;35.08;101124.50;2614578;36;20030;-45
2021/09/14 10:55:11;;;;;;;3.15;2.65;;;;;;;29.97;39.82;101113.38;2579295;31;2004238;-48
2021/09/14 10:58:00;;;;;;;3.22;2.60;;;;;;;32.05;33.50;101115.69;2614725;36;20030;-46
2021/09/14 11:00:31;;;;;;;3.25;2.17;;;;;;;30.04;37.30;101106.84;2579616;31;2004586;-46
2021/09/14 11:03:03;;;;;;;3.33;2.50;;;;;;;29.05;38.93;101108.88;2615221;31;20034;-46
2021/09/14 11:05:35;;;;;;;4.05;2.30;;;;;;;30.53;36.74;101111.53;2614271;36;20042;-47
2021/09/14 11:08:07;;;;;;;3.08;2.65;;;;;;;31.66;35.22;101118.75;2615153;31;20057;-48
2021/09/14 11:10:40;;;;;;;2.75;2.50;;;;;;;30.60;36.70;101108.50;2614315;31;20046;-48
2021/09/14 11:13:09;;;;;;;2.97;2.33;;;;;;;27.10;43.02;101107.91;2614948;31;20034;-51
2021/09/14 11:15:37;;;;;;;2.72;2.45;;;;;;;31.00;38.81;101113.53;2615090;36;20038;-48
2021/09/14 11:18:04;;;;;;;3.05;2.72;;;;;;;29.41;38.70;101106.34;2615199;31;20039;-48
2021/09/14 11:20:31;;;;;;;4.47;2.30;;;;;;;27.64;40.99;101099.72;2615491;31;20030;-48
2021/09/14 11:23:01;;;;;;;4.90;2.42;;;;;;;27.52;43.18;101099.34;2614984;36;20037;-46
2021/09/14 11:25:30;;;;;;;2.83;2.60;;;;;;;27.63;43.46;101103.25;2617389;36;20035;-53
2021/09/14 11:28:09;;;;;;;3.28;2.70;;;;;;;29.73;41.24;101104.88;2617433;31;20037;-55
2021/09/14 11:30:58;;;;;;;5.30;2.25;;;;;;;31.19;36.86;101111.59;2580120;36;2004730;-55
2021/09/14 11:33:29;;;;;;;4.85;2.35;;;;;;;35.51;30.39;101116.44;2616416;36;20046;-54
2021/09/14 11:35:59;;;;;;;2.78;2.58;;;;;;;34.38;32.63;101117.16;2615985;36;20162;-49
2021/09/14 11:38:29;;;;;;;5.03;2.25;;;;;;;35.10;30.45;101106.91;2615546;36;20490;-46
2021/09/14 11:41:08;;;;;;;5.80;2.55;;;;;;;34.24;29.45;101103.94;2579800;31;2004341;-47
2021/09/14 11:43:42;;;;;;;3.13;2.15;;;;;;;32.57;32.44;101102.03;2615412;31;20568;-48
2021/09/14 11:46:18;;;;;;;3.20;2.20;;;;;;;30.25;37.82;101094.41;2615422;31;20082;-50
2021/09/14 11:48:59;;;;;;;2.83;2.33;;;;;;;29.54;37.65;101086.38;2614975;36;20058;-53
2021/09/14 11:51:37;;;;;;;3.10;2.63;;;;;;;29.27;38.56;101083.25;2615624;36;20447;-52
2021/09/14 11:54:12;;;;;;;2.95;2.47;;;;;;;26.97;42.75;101064.53;2578758;36;2004774;-52
2021/09/14 11:56:40;;;;;;;5.13;2.73;;;;;;;29.28;39.38;101073.53;2614982;31;20037;-47
2021/09/14 11:59:17;;;;;;;3.40;2.15;;;;;;;31.55;35.63;101073.50;2614707;36;20577;-53
2021/09/14 12:01:45;;;;;;;2.70;2.25;;;;;;;34.22;31.81;101079.28;2614780;36;20042;-48
2021/09/14 12:04:17;;;;;;;4.85;2.17;;;;;;;34.91;30.34;101081.56;2615739;31;20061;-49
2021/09/14 12:06:55;;;;;;;3.85;3.15;;;;;;;29.48;37.13;101069.97;2615703;36;20054;-47
2021/09/14 12:09:25;;;;;;;3.83;2.75;;;;;;;30.03;37.84;101068.19;2615817;31;20550;-50
2021/09/14 12:12:01;;;;;;;4.68;2.90;;;;;;;28.81;38.26;101065.97;2615594;36;20035;-47
2021/09/14 12:14:29;;;;;;;3.03;2.72;;;;;;;28.81;39.86;101061.56;2616217;36;20424;-49
2021/09/14 12:16:59;;;;;;;2.90;2.60;;;;;;;28.52;39.29;101061.94;2617049;31;20042;-52
2021/09/14 12:19:26;;;;;;;5.20;2.55;;;;;;;28.50;41.67;101061.16;2615805;36;20041;-49